sensor_id;sensor_type;location;lat;lon;timestamp;P1;P2;P0
71858;PMS5003;59713;50.866;4.324;2023-03-30T00:00:26;5;5;
71858;PMS5003;59713;50.866;4.324;2023-03-30T00:01:26;5;5;
71858;PMS5003;59713;50.866;4.324;2023-03-30T00:02:26;5;5;
71858;PMS5003;59713;50.866;4.324;2023-03-30T00:03:26;3;3;
71858;PMS5003;59713;50.866;4.324;2023-03-30T00:04:26;3;3;
71858;PMS5003;59713;50.866;4.324;2023-03-30T00:05:26;3;3;
71858;PMS5003;59713;50.866;4.324;2023-03-30T00:06:26;7;4;
71858;PMS5003;59713;50.866;4.324;2023-03-30T00:06:26;7;4;
71858;PMS5003;59713;50.866;4.324;2023-03-30T00:07:26;7;4;
71858;PMS5003;59713;50.866;4.324;2023-03-30T00:08:26;7;4;
71858;PMS5003;59713;50.866;4.324;2023-03-30T00:09:26;7;4;
71858;PMS5003;59713;50.866;4.324;2023-03-30T00:10:26;7;4;
71858;PMS5003;59713;50.866;4.324;2023-03-30T00:11:26;7;4;
71858;PMS5003;59713;50.866;4.324;2023-03-30T00:12:26;5;5;
71858;PMS5003;59713;50.866;4.324;2023-03-30T00:13:26;5;5;
71858;PMS5003;59713;50.866;4.324;2023-03-30T00:14:26;5;5;
71858;PMS5003;59713;50.866;4.324;2023-03-30T00:15:26;4;4;
71858;PMS5003;59713;50.866;4.324;2023-03-30T00:15:26;4;4;
71858;PMS5003;59713;50.866;4.324;2023-03-30T00:16:26;4;4;
71858;PMS5003;59713;50.866;4.324;2023-03-30T00:17:26;4;4;
71858;PMS5003;59713;50.866;4.324;2023-03-30T00:18:26;6;3;
71858;PMS5003;59713;50.866;4.324;2023-03-30T00:19:26;6;3;
71858;PMS5003;59713;50.866;4.324;2023-03-30T00:20:26;6;3;
71858;PMS5003;59713;50.866;4.324;2023-03-30T00:21:26;5;4;
71858;PMS5003;59713;50.866;4.324;2023-03-30T00:22:26;5;4;
71858;PMS5003;59713;50.866;4.324;2023-03-30T00:23:26;5;4;
71858;PMS5003;59713;50.866;4.324;2023-03-30T00:24:26;5;4;
71858;PMS5003;59713;50.866;4.324;2023-03-30T00:24:26;5;4;
71858;PMS5003;59713;50.866;4.324;2023-03-30T00:25:26;5;4;
71858;PMS5003;59713;50.866;4.324;2023-03-30T00:26:26;5;4;
71858;PMS5003;59713;50.866;4.324;2023-03-30T00:27:26;4;4;
71858;PMS5003;59713;50.866;4.324;2023-03-30T00:28:26;4;4;
71858;PMS5003;59713;50.866;4.324;2023-03-30T00:29:26;4;4;
71858;PMS5003;59713;50.866;4.324;2023-03-30T00:30:26;5;4;
71858;PMS5003;59713;50.866;4.324;2023-03-30T00:31:26;5;4;
71858;PMS5003;59713;50.866;4.324;2023-03-30T00:32:26;5;4;
71858;PMS5003;59713;50.866;4.324;2023-03-30T00:33:26;2;2;
71858;PMS5003;59713;50.866;4.324;2023-03-30T00:34:26;2;2;
71858;PMS5003;59713;50.866;4.324;2023-03-30T00:34:26;2;2;
71858;PMS5003;59713;50.866;4.324;2023-03-30T00:35:26;2;2;
71858;PMS5003;59713;50.866;4.324;2023-03-30T00:36:26;5;2;
71858;PMS5003;59713;50.866;4.324;2023-03-30T00:37:26;5;2;
71858;PMS5003;59713;50.866;4.324;2023-03-30T00:38:26;5;2;
71858;PMS5003;59713;50.866;4.324;2023-03-30T00:39:26;2;1;
71858;PMS5003;59713;50.866;4.324;2023-03-30T00:40:26;2;1;
71858;PMS5003;59713;50.866;4.324;2023-03-30T00:41:26;2;1;
71858;PMS5003;59713;50.866;4.324;2023-03-30T00:42:26;5;4;
71858;PMS5003;59713;50.866;4.324;2023-03-30T00:43:26;5;4;
71858;PMS5003;59713;50.866;4.324;2023-03-30T00:43:26;5;4;
71858;PMS5003;59713;50.866;4.324;2023-03-30T00:45:26;5;3;
71858;PMS5003;59713;50.866;4.324;2023-03-30T00:46:26;5;3;
71858;PMS5003;59713;50.866;4.324;2023-03-30T00:47:26;5;3;
71858;PMS5003;59713;50.866;4.324;2023-03-30T00:48:26;3;2;
71858;PMS5003;59713;50.866;4.324;2023-03-30T00:49:26;3;2;
71858;PMS5003;59713;50.866;4.324;2023-03-30T00:50:26;3;2;
71858;PMS5003;59713;50.866;4.324;2023-03-30T00:51:27;2;2;
71858;PMS5003;59713;50.866;4.324;2023-03-30T00:52:26;2;2;
71858;PMS5003;59713;50.866;4.324;2023-03-30T00:52:26;2;2;
71858;PMS5003;59713;50.866;4.324;2023-03-30T00:53:26;2;2;
71858;PMS5003;59713;50.866;4.324;2023-03-30T00:54:26;5;4;
71858;PMS5003;59713;50.866;4.324;2023-03-30T00:55:26;5;4;
71858;PMS5003;59713;50.866;4.324;2023-03-30T00:56:27;5;4;
71858;PMS5003;59713;50.866;4.324;2023-03-30T00:57:26;10;5;
71858;PMS5003;59713;50.866;4.324;2023-03-30T00:58:26;10;5;
71858;PMS5003;59713;50.866;4.324;2023-03-30T00:59:26;10;5;
71858;PMS5003;59713;50.866;4.324;2023-03-30T01:00:26;5;2;
71858;PMS5003;59713;50.866;4.324;2023-03-30T01:01:26;5;2;
71858;PMS5003;59713;50.866;4.324;2023-03-30T01:02:26;5;2;
71858;PMS5003;59713;50.866;4.324;2023-03-30T01:02:26;5;2;
71858;PMS5003;59713;50.866;4.324;2023-03-30T01:03:27;3;3;
71858;PMS5003;59713;50.866;4.324;2023-03-30T01:04:26;3;3;
71858;PMS5003;59713;50.866;4.324;2023-03-30T01:05:26;3;3;
71858;PMS5003;59713;50.866;4.324;2023-03-30T01:06:26;4;2;
71858;PMS5003;59713;50.866;4.324;2023-03-30T01:07:26;4;2;
71858;PMS5003;59713;50.866;4.324;2023-03-30T01:08:26;4;2;
71858;PMS5003;59713;50.866;4.324;2023-03-30T01:09:26;5;4;
71858;PMS5003;59713;50.866;4.324;2023-03-30T01:10:26;5;4;
71858;PMS5003;59713;50.866;4.324;2023-03-30T01:11:27;5;4;
71858;PMS5003;59713;50.866;4.324;2023-03-30T01:11:27;5;4;
71858;PMS5003;59713;50.866;4.324;2023-03-30T01:12:26;3;3;
71858;PMS5003;59713;50.866;4.324;2023-03-30T01:13:26;3;3;
71858;PMS5003;59713;50.866;4.324;2023-03-30T01:14:26;3;3;
71858;PMS5003;59713;50.866;4.324;2023-03-30T01:15:26;5;5;
71858;PMS5003;59713;50.866;4.324;2023-03-30T01:16:27;5;5;
71858;PMS5003;59713;50.866;4.324;2023-03-30T01:17:28;5;5;
71858;PMS5003;59713;50.866;4.324;2023-03-30T01:18:29;6;3;
71858;PMS5003;59713;50.866;4.324;2023-03-30T01:19:35;6;3;
71858;PMS5003;59713;50.866;4.324;2023-03-30T01:20:33;6;3;
71858;PMS5003;59713;50.866;4.324;2023-03-30T01:21:31;7;3;
71858;PMS5003;59713;50.866;4.324;2023-03-30T01:21:33;7;3;
71858;PMS5003;59713;50.866;4.324;2023-03-30T01:22:32;7;3;
71858;PMS5003;59713;50.866;4.324;2023-03-30T01:23:32;7;3;
71858;PMS5003;59713;50.866;4.324;2023-03-30T01:24:32;8;4;
71858;PMS5003;59713;50.866;4.324;2023-03-30T01:26:30;8;4;
71858;PMS5003;59713;50.866;4.324;2023-03-30T01:27:33;6;2;
71858;PMS5003;59713;50.866;4.324;2023-03-30T01:28:30;6;2;
71858;PMS5003;59713;50.866;4.324;2023-03-30T01:29:29;6;2;
71858;PMS5003;59713;50.866;4.324;2023-03-30T01:30:30;4;3;
71858;PMS5003;59713;50.866;4.324;2023-03-30T01:30:30;4;3;
71858;PMS5003;59713;50.866;4.324;2023-03-30T01:31:45;4;3;
71858;PMS5003;59713;50.866;4.324;2023-03-30T01:32:36;4;3;
71858;PMS5003;59713;50.866;4.324;2023-03-30T01:33:29;4;3;
71858;PMS5003;59713;50.866;4.324;2023-03-30T01:34:30;4;3;
71858;PMS5003;59713;50.866;4.324;2023-03-30T01:35:30;4;3;
71858;PMS5003;59713;50.866;4.324;2023-03-30T01:36:31;3;3;
71858;PMS5003;59713;50.866;4.324;2023-03-30T01:37:36;3;3;
71858;PMS5003;59713;50.866;4.324;2023-03-30T01:38:31;3;3;
71858;PMS5003;59713;50.866;4.324;2023-03-30T01:39:30;4;4;
71858;PMS5003;59713;50.866;4.324;2023-03-30T01:40:26;4;4;
71858;PMS5003;59713;50.866;4.324;2023-03-30T01:40:26;4;4;
71858;PMS5003;59713;50.866;4.324;2023-03-30T01:41:27;4;4;
71858;PMS5003;59713;50.866;4.324;2023-03-30T01:42:28;3;1;
71858;PMS5003;59713;50.866;4.324;2023-03-30T01:43:27;3;1;
71858;PMS5003;59713;50.866;4.324;2023-03-30T01:44:28;3;1;
71858;PMS5003;59713;50.866;4.324;2023-03-30T01:45:28;5;4;
71858;PMS5003;59713;50.866;4.324;2023-03-30T01:46:26;5;4;
71858;PMS5003;59713;50.866;4.324;2023-03-30T01:47:27;5;4;
71858;PMS5003;59713;50.866;4.324;2023-03-30T01:48:27;4;3;
71858;PMS5003;59713;50.866;4.324;2023-03-30T01:49:26;4;3;
71858;PMS5003;59713;50.866;4.324;2023-03-30T01:49:26;4;3;
71858;PMS5003;59713;50.866;4.324;2023-03-30T01:50:27;4;3;
71858;PMS5003;59713;50.866;4.324;2023-03-30T01:51:26;2;2;
71858;PMS5003;59713;50.866;4.324;2023-03-30T01:52:26;2;2;
71858;PMS5003;59713;50.866;4.324;2023-03-30T01:53:27;2;2;
71858;PMS5003;59713;50.866;4.324;2023-03-30T01:54:28;3;3;
71858;PMS5003;59713;50.866;4.324;2023-03-30T01:55:27;3;3;
71858;PMS5003;59713;50.866;4.324;2023-03-30T01:56:26;3;3;
71858;PMS5003;59713;50.866;4.324;2023-03-30T01:57:27;3;1;
71858;PMS5003;59713;50.866;4.324;2023-03-30T01:58:27;3;1;
71858;PMS5003;59713;50.866;4.324;2023-03-30T01:59:27;3;1;
71858;PMS5003;59713;50.866;4.324;2023-03-30T01:59:27;3;1;
71858;PMS5003;59713;50.866;4.324;2023-03-30T02:00:26;5;3;
71858;PMS5003;59713;50.866;4.324;2023-03-30T02:01:26;5;3;
71858;PMS5003;59713;50.866;4.324;2023-03-30T02:02:27;5;3;
71858;PMS5003;59713;50.866;4.324;2023-03-30T02:03:26;4;3;
71858;PMS5003;59713;50.866;4.324;2023-03-30T02:04:26;4;3;
71858;PMS5003;59713;50.866;4.324;2023-03-30T02:05:26;4;3;
71858;PMS5003;59713;50.866;4.324;2023-03-30T02:06:27;3;3;
71858;PMS5003;59713;50.866;4.324;2023-03-30T02:07:26;3;3;
71858;PMS5003;59713;50.866;4.324;2023-03-30T02:08:27;3;3;
71858;PMS5003;59713;50.866;4.324;2023-03-30T02:08:27;3;3;
71858;PMS5003;59713;50.866;4.324;2023-03-30T02:09:26;8;3;
71858;PMS5003;59713;50.866;4.324;2023-03-30T02:10:26;8;3;
71858;PMS5003;59713;50.866;4.324;2023-03-30T02:11:26;8;3;
71858;PMS5003;59713;50.866;4.324;2023-03-30T02:12:26;3;3;
71858;PMS5003;59713;50.866;4.324;2023-03-30T02:13:26;3;3;
71858;PMS5003;59713;50.866;4.324;2023-03-30T02:14:27;3;3;
71858;PMS5003;59713;50.866;4.324;2023-03-30T02:15:27;7;4;
71858;PMS5003;59713;50.866;4.324;2023-03-30T02:16:27;7;4;
71858;PMS5003;59713;50.866;4.324;2023-03-30T02:17:27;7;4;
71858;PMS5003;59713;50.866;4.324;2023-03-30T02:17:27;7;4;
71858;PMS5003;59713;50.866;4.324;2023-03-30T02:18:26;6;3;
71858;PMS5003;59713;50.866;4.324;2023-03-30T02:19:26;6;3;
71858;PMS5003;59713;50.866;4.324;2023-03-30T02:20:26;6;3;
71858;PMS5003;59713;50.866;4.324;2023-03-30T02:21:26;5;3;
71858;PMS5003;59713;50.866;4.324;2023-03-30T02:22:26;5;3;
71858;PMS5003;59713;50.866;4.324;2023-03-30T02:23:27;5;3;
71858;PMS5003;59713;50.866;4.324;2023-03-30T02:24:26;4;2;
71858;PMS5003;59713;50.866;4.324;2023-03-30T02:25:26;4;2;
71858;PMS5003;59713;50.866;4.324;2023-03-30T02:26:26;4;2;
71858;PMS5003;59713;50.866;4.324;2023-03-30T02:26:26;4;2;
71858;PMS5003;59713;50.866;4.324;2023-03-30T02:27:26;5;4;
71858;PMS5003;59713;50.866;4.324;2023-03-30T02:28:26;5;4;
71858;PMS5003;59713;50.866;4.324;2023-03-30T02:29:26;5;4;
71858;PMS5003;59713;50.866;4.324;2023-03-30T02:30:29;3;3;
71858;PMS5003;59713;50.866;4.324;2023-03-30T02:31:26;3;3;
71858;PMS5003;59713;50.866;4.324;2023-03-30T02:32:27;3;3;
71858;PMS5003;59713;50.866;4.324;2023-03-30T02:33:27;3;3;
71858;PMS5003;59713;50.866;4.324;2023-03-30T02:34:32;3;3;
71858;PMS5003;59713;50.866;4.324;2023-03-30T02:35:30;3;3;
71858;PMS5003;59713;50.866;4.324;2023-03-30T02:36:30;5;3;
71858;PMS5003;59713;50.866;4.324;2023-03-30T02:36:30;5;3;
71858;PMS5003;59713;50.866;4.324;2023-03-30T02:37:31;5;3;
71858;PMS5003;59713;50.866;4.324;2023-03-30T02:38:42;5;3;
71858;PMS5003;59713;50.866;4.324;2023-03-30T02:39:28;4;4;
71858;PMS5003;59713;50.866;4.324;2023-03-30T02:40:30;4;4;
71858;PMS5003;59713;50.866;4.324;2023-03-30T02:41:31;4;4;
71858;PMS5003;59713;50.866;4.324;2023-03-30T02:42:30;5;2;
71858;PMS5003;59713;50.866;4.324;2023-03-30T02:43:29;5;2;
71858;PMS5003;59713;50.866;4.324;2023-03-30T02:44:28;5;2;
71858;PMS5003;59713;50.866;4.324;2023-03-30T02:45:28;5;4;
71858;PMS5003;59713;50.866;4.324;2023-03-30T02:45:28;5;4;
71858;PMS5003;59713;50.866;4.324;2023-03-30T02:46:32;5;4;
71858;PMS5003;59713;50.866;4.324;2023-03-30T02:47:27;5;4;
71858;PMS5003;59713;50.866;4.324;2023-03-30T02:48:30;5;5;
71858;PMS5003;59713;50.866;4.324;2023-03-30T02:49:28;5;5;
71858;PMS5003;59713;50.866;4.324;2023-03-30T02:50:29;5;5;
71858;PMS5003;59713;50.866;4.324;2023-03-30T02:51:31;4;2;
71858;PMS5003;59713;50.866;4.324;2023-03-30T02:52:30;4;2;
71858;PMS5003;59713;50.866;4.324;2023-03-30T02:53:28;4;2;
71858;PMS5003;59713;50.866;4.324;2023-03-30T02:54:29;3;3;
71858;PMS5003;59713;50.866;4.324;2023-03-30T02:54:29;3;3;
71858;PMS5003;59713;50.866;4.324;2023-03-30T02:55:28;3;3;
71858;PMS5003;59713;50.866;4.324;2023-03-30T02:56:26;3;3;
71858;PMS5003;59713;50.866;4.324;2023-03-30T02:57:28;6;3;
71858;PMS5003;59713;50.866;4.324;2023-03-30T02:58:27;6;3;
71858;PMS5003;59713;50.866;4.324;2023-03-30T02:59:26;6;3;
71858;PMS5003;59713;50.866;4.324;2023-03-30T03:00:27;5;4;
71858;PMS5003;59713;50.866;4.324;2023-03-30T03:01:27;5;4;
71858;PMS5003;59713;50.866;4.324;2023-03-30T03:02:27;5;4;
71858;PMS5003;59713;50.866;4.324;2023-03-30T03:03:27;3;3;
71858;PMS5003;59713;50.866;4.324;2023-03-30T03:03:27;3;3;
71858;PMS5003;59713;50.866;4.324;2023-03-30T03:04:26;3;3;
71858;PMS5003;59713;50.866;4.324;2023-03-30T03:05:26;3;3;
71858;PMS5003;59713;50.866;4.324;2023-03-30T03:06:26;3;2;
71858;PMS5003;59713;50.866;4.324;2023-03-30T03:07:26;3;2;
71858;PMS5003;59713;50.866;4.324;2023-03-30T03:08:27;3;2;
71858;PMS5003;59713;50.866;4.324;2023-03-30T03:09:26;3;2;
71858;PMS5003;59713;50.866;4.324;2023-03-30T03:10:26;3;2;
71858;PMS5003;59713;50.866;4.324;2023-03-30T03:11:26;3;2;
71858;PMS5003;59713;50.866;4.324;2023-03-30T03:12:26;5;2;
71858;PMS5003;59713;50.866;4.324;2023-03-30T03:12:26;5;2;
71858;PMS5003;59713;50.866;4.324;2023-03-30T03:13:26;5;2;
71858;PMS5003;59713;50.866;4.324;2023-03-30T03:14:26;5;2;
71858;PMS5003;59713;50.866;4.324;2023-03-30T03:15:26;5;4;
71858;PMS5003;59713;50.866;4.324;2023-03-30T03:16:26;5;4;
71858;PMS5003;59713;50.866;4.324;2023-03-30T03:17:26;5;4;
71858;PMS5003;59713;50.866;4.324;2023-03-30T03:18:26;3;3;
71858;PMS5003;59713;50.866;4.324;2023-03-30T03:19:26;3;3;
71858;PMS5003;59713;50.866;4.324;2023-03-30T03:20:26;3;3;
71858;PMS5003;59713;50.866;4.324;2023-03-30T03:21:26;3;3;
71858;PMS5003;59713;50.866;4.324;2023-03-30T03:21:26;3;3;
71858;PMS5003;59713;50.866;4.324;2023-03-30T03:22:26;3;3;
71858;PMS5003;59713;50.866;4.324;2023-03-30T03:23:26;3;3;
71858;PMS5003;59713;50.866;4.324;2023-03-30T03:24:26;4;4;
71858;PMS5003;59713;50.866;4.324;2023-03-30T03:25:26;4;4;
71858;PMS5003;59713;50.866;4.324;2023-03-30T03:26:26;4;4;
71858;PMS5003;59713;50.866;4.324;2023-03-30T03:27:26;2;2;
71858;PMS5003;59713;50.866;4.324;2023-03-30T03:28:26;2;2;
71858;PMS5003;59713;50.866;4.324;2023-03-30T03:29:26;2;2;
71858;PMS5003;59713;50.866;4.324;2023-03-30T03:30:26;4;4;
71858;PMS5003;59713;50.866;4.324;2023-03-30T03:30:26;4;4;
71858;PMS5003;59713;50.866;4.324;2023-03-30T03:31:26;4;4;
71858;PMS5003;59713;50.866;4.324;2023-03-30T03:32:26;4;4;
71858;PMS5003;59713;50.866;4.324;2023-03-30T03:33:28;3;3;
71858;PMS5003;59713;50.866;4.324;2023-03-30T03:34:26;3;3;
71858;PMS5003;59713;50.866;4.324;2023-03-30T03:35:26;3;3;
71858;PMS5003;59713;50.866;4.324;2023-03-30T03:36:26;3;3;
71858;PMS5003;59713;50.866;4.324;2023-03-30T03:37:26;3;3;
71858;PMS5003;59713;50.866;4.324;2023-03-30T03:38:26;3;3;
71858;PMS5003;59713;50.866;4.324;2023-03-30T03:39:26;7;3;
71858;PMS5003;59713;50.866;4.324;2023-03-30T03:39:26;7;3;
71858;PMS5003;59713;50.866;4.324;2023-03-30T03:40:26;7;3;
71858;PMS5003;59713;50.866;4.324;2023-03-30T03:41:26;7;3;
71858;PMS5003;59713;50.866;4.324;2023-03-30T03:42:27;3;1;
71858;PMS5003;59713;50.866;4.324;2023-03-30T03:43:26;3;1;
71858;PMS5003;59713;50.866;4.324;2023-03-30T03:44:26;3;1;
71858;PMS5003;59713;50.866;4.324;2023-03-30T03:45:26;5;4;
71858;PMS5003;59713;50.866;4.324;2023-03-30T03:46:26;5;4;
71858;PMS5003;59713;50.866;4.324;2023-03-30T03:47:26;5;4;
71858;PMS5003;59713;50.866;4.324;2023-03-30T03:48:26;5;3;
71858;PMS5003;59713;50.866;4.324;2023-03-30T03:48:26;5;3;
71858;PMS5003;59713;50.866;4.324;2023-03-30T03:49:26;5;3;
71858;PMS5003;59713;50.866;4.324;2023-03-30T03:50:26;5;3;
71858;PMS5003;59713;50.866;4.324;2023-03-30T03:51:26;1;1;
71858;PMS5003;59713;50.866;4.324;2023-03-30T03:52:26;1;1;
71858;PMS5003;59713;50.866;4.324;2023-03-30T03:53:26;1;1;
71858;PMS5003;59713;50.866;4.324;2023-03-30T03:54:26;3;1;
71858;PMS5003;59713;50.866;4.324;2023-03-30T03:55:26;3;1;
71858;PMS5003;59713;50.866;4.324;2023-03-30T03:56:26;3;1;
71858;PMS5003;59713;50.866;4.324;2023-03-30T03:57:26;2;2;
71858;PMS5003;59713;50.866;4.324;2023-03-30T03:57:26;2;2;
71858;PMS5003;59713;50.866;4.324;2023-03-30T03:58:26;2;2;
71858;PMS5003;59713;50.866;4.324;2023-03-30T03:59:26;2;2;
71858;PMS5003;59713;50.866;4.324;2023-03-30T04:00:26;2;2;
71858;PMS5003;59713;50.866;4.324;2023-03-30T04:01:26;2;2;
71858;PMS5003;59713;50.866;4.324;2023-03-30T04:02:26;2;2;
71858;PMS5003;59713;50.866;4.324;2023-03-30T04:03:26;6;3;
71858;PMS5003;59713;50.866;4.324;2023-03-30T04:04:26;6;3;
71858;PMS5003;59713;50.866;4.324;2023-03-30T04:05:26;6;3;
71858;PMS5003;59713;50.866;4.324;2023-03-30T04:06:26;3;3;
71858;PMS5003;59713;50.866;4.324;2023-03-30T04:06:26;3;3;
71858;PMS5003;59713;50.866;4.324;2023-03-30T04:07:27;3;3;
71858;PMS5003;59713;50.866;4.324;2023-03-30T04:08:26;3;3;
71858;PMS5003;59713;50.866;4.324;2023-03-30T04:09:26;3;2;
71858;PMS5003;59713;50.866;4.324;2023-03-30T04:10:26;3;2;
71858;PMS5003;59713;50.866;4.324;2023-03-30T04:11:26;3;2;
71858;PMS5003;59713;50.866;4.324;2023-03-30T04:12:27;4;2;
71858;PMS5003;59713;50.866;4.324;2023-03-30T04:13:26;4;2;
71858;PMS5003;59713;50.866;4.324;2023-03-30T04:14:26;4;2;
71858;PMS5003;59713;50.866;4.324;2023-03-30T04:15:26;7;4;
71858;PMS5003;59713;50.866;4.324;2023-03-30T04:16:26;7;4;
71858;PMS5003;59713;50.866;4.324;2023-03-30T04:16:27;7;4;
71858;PMS5003;59713;50.866;4.324;2023-03-30T04:17:26;7;4;
71858;PMS5003;59713;50.866;4.324;2023-03-30T04:18:26;5;3;
71858;PMS5003;59713;50.866;4.324;2023-03-30T04:19:26;5;3;
71858;PMS5003;59713;50.866;4.324;2023-03-30T04:20:27;5;3;
71858;PMS5003;59713;50.866;4.324;2023-03-30T04:21:26;5;4;
71858;PMS5003;59713;50.866;4.324;2023-03-30T04:22:26;5;4;
71858;PMS5003;59713;50.866;4.324;2023-03-30T04:23:26;5;4;
71858;PMS5003;59713;50.866;4.324;2023-03-30T04:24:26;5;4;
71858;PMS5003;59713;50.866;4.324;2023-03-30T04:25:26;5;4;
71858;PMS5003;59713;50.866;4.324;2023-03-30T04:25:26;5;4;
71858;PMS5003;59713;50.866;4.324;2023-03-30T04:26:26;5;4;
71858;PMS5003;59713;50.866;4.324;2023-03-30T04:27:26;6;4;
71858;PMS5003;59713;50.866;4.324;2023-03-30T04:28:26;6;4;
71858;PMS5003;59713;50.866;4.324;2023-03-30T04:29:26;6;4;
71858;PMS5003;59713;50.866;4.324;2023-03-30T04:30:26;5;4;
71858;PMS5003;59713;50.866;4.324;2023-03-30T04:31:26;5;4;
71858;PMS5003;59713;50.866;4.324;2023-03-30T04:32:26;5;4;
71858;PMS5003;59713;50.866;4.324;2023-03-30T04:33:26;8;5;
71858;PMS5003;59713;50.866;4.324;2023-03-30T04:34:26;8;5;
71858;PMS5003;59713;50.866;4.324;2023-03-30T04:34:26;8;5;
71858;PMS5003;59713;50.866;4.324;2023-03-30T04:35:27;8;5;
71858;PMS5003;59713;50.866;4.324;2023-03-30T04:36:26;3;2;
71858;PMS5003;59713;50.866;4.324;2023-03-30T04:37:26;3;2;
71858;PMS5003;59713;50.866;4.324;2023-03-30T04:38:26;3;2;
71858;PMS5003;59713;50.866;4.324;2023-03-30T04:39:26;7;6;
71858;PMS5003;59713;50.866;4.324;2023-03-30T04:40:26;7;6;
71858;PMS5003;59713;50.866;4.324;2023-03-30T04:41:26;7;6;
71858;PMS5003;59713;50.866;4.324;2023-03-30T04:42:27;4;4;
71858;PMS5003;59713;50.866;4.324;2023-03-30T04:43:26;4;4;
71858;PMS5003;59713;50.866;4.324;2023-03-30T04:43:26;4;4;
71858;PMS5003;59713;50.866;4.324;2023-03-30T04:44:26;4;4;
71858;PMS5003;59713;50.866;4.324;2023-03-30T04:45:26;3;1;
71858;PMS5003;59713;50.866;4.324;2023-03-30T04:46:26;3;1;
71858;PMS5003;59713;50.866;4.324;2023-03-30T04:47:26;3;1;
71858;PMS5003;59713;50.866;4.324;2023-03-30T04:48:26;3;3;
71858;PMS5003;59713;50.866;4.324;2023-03-30T04:49:26;3;3;
71858;PMS5003;59713;50.866;4.324;2023-03-30T04:50:26;3;3;
71858;PMS5003;59713;50.866;4.324;2023-03-30T04:51:28;3;3;
71858;PMS5003;59713;50.866;4.324;2023-03-30T04:52:26;3;3;
71858;PMS5003;59713;50.866;4.324;2023-03-30T04:52:26;3;3;
71858;PMS5003;59713;50.866;4.324;2023-03-30T04:53:26;3;3;
71858;PMS5003;59713;50.866;4.324;2023-03-30T04:54:26;3;3;
71858;PMS5003;59713;50.866;4.324;2023-03-30T04:55:26;3;3;
71858;PMS5003;59713;50.866;4.324;2023-03-30T04:56:26;3;3;
71858;PMS5003;59713;50.866;4.324;2023-03-30T04:57:26;2;2;
71858;PMS5003;59713;50.866;4.324;2023-03-30T04:58:26;2;2;
71858;PMS5003;59713;50.866;4.324;2023-03-30T04:59:26;2;2;
71858;PMS5003;59713;50.866;4.324;2023-03-30T05:00:26;4;3;
71858;PMS5003;59713;50.866;4.324;2023-03-30T05:01:26;4;3;
71858;PMS5003;59713;50.866;4.324;2023-03-30T05:02:26;4;3;
71858;PMS5003;59713;50.866;4.324;2023-03-30T05:02:26;4;3;
71858;PMS5003;59713;50.866;4.324;2023-03-30T05:03:26;6;1;
71858;PMS5003;59713;50.866;4.324;2023-03-30T05:04:26;6;1;
71858;PMS5003;59713;50.866;4.324;2023-03-30T05:05:26;6;1;
71858;PMS5003;59713;50.866;4.324;2023-03-30T05:06:26;4;4;
71858;PMS5003;59713;50.866;4.324;2023-03-30T05:07:26;4;4;
71858;PMS5003;59713;50.866;4.324;2023-03-30T05:08:26;4;4;
71858;PMS5003;59713;50.866;4.324;2023-03-30T05:09:26;4;4;
71858;PMS5003;59713;50.866;4.324;2023-03-30T05:10:26;4;4;
71858;PMS5003;59713;50.866;4.324;2023-03-30T05:11:26;4;4;
71858;PMS5003;59713;50.866;4.324;2023-03-30T05:11:26;4;4;
71858;PMS5003;59713;50.866;4.324;2023-03-30T05:12:26;5;2;
71858;PMS5003;59713;50.866;4.324;2023-03-30T05:13:26;5;2;
71858;PMS5003;59713;50.866;4.324;2023-03-30T05:14:26;5;2;
71858;PMS5003;59713;50.866;4.324;2023-03-30T05:15:26;6;3;
71858;PMS5003;59713;50.866;4.324;2023-03-30T05:16:26;6;3;
71858;PMS5003;59713;50.866;4.324;2023-03-30T05:17:26;6;3;
71858;PMS5003;59713;50.866;4.324;2023-03-30T05:18:26;4;3;
71858;PMS5003;59713;50.866;4.324;2023-03-30T05:20:26;4;3;
71858;PMS5003;59713;50.866;4.324;2023-03-30T05:20:26;4;3;
71858;PMS5003;59713;50.866;4.324;2023-03-30T05:21:26;3;3;
71858;PMS5003;59713;50.866;4.324;2023-03-30T05:22:26;3;3;
71858;PMS5003;59713;50.866;4.324;2023-03-30T05:23:26;3;3;
71858;PMS5003;59713;50.866;4.324;2023-03-30T05:24:26;3;2;
71858;PMS5003;59713;50.866;4.324;2023-03-30T05:25:26;3;2;
71858;PMS5003;59713;50.866;4.324;2023-03-30T05:26:26;3;2;
71858;PMS5003;59713;50.866;4.324;2023-03-30T05:27:28;3;3;
71858;PMS5003;59713;50.866;4.324;2023-03-30T05:28:26;3;3;
71858;PMS5003;59713;50.866;4.324;2023-03-30T05:29:26;3;3;
71858;PMS5003;59713;50.866;4.324;2023-03-30T05:30:26;4;3;
71858;PMS5003;59713;50.866;4.324;2023-03-30T05:30:26;4;3;
71858;PMS5003;59713;50.866;4.324;2023-03-30T05:31:26;4;3;
71858;PMS5003;59713;50.866;4.324;2023-03-30T05:32:26;4;3;
71858;PMS5003;59713;50.866;4.324;2023-03-30T05:33:26;10;2;
71858;PMS5003;59713;50.866;4.324;2023-03-30T05:34:26;10;2;
71858;PMS5003;59713;50.866;4.324;2023-03-30T05:35:26;10;2;
71858;PMS5003;59713;50.866;4.324;2023-03-30T05:36:26;5;3;
71858;PMS5003;59713;50.866;4.324;2023-03-30T05:37:26;5;3;
71858;PMS5003;59713;50.866;4.324;2023-03-30T05:38:26;5;3;
71858;PMS5003;59713;50.866;4.324;2023-03-30T05:39:26;4;3;
71858;PMS5003;59713;50.866;4.324;2023-03-30T05:39:26;4;3;
71858;PMS5003;59713;50.866;4.324;2023-03-30T05:40:26;4;3;
71858;PMS5003;59713;50.866;4.324;2023-03-30T05:41:26;4;3;
71858;PMS5003;59713;50.866;4.324;2023-03-30T05:42:26;3;1;
71858;PMS5003;59713;50.866;4.324;2023-03-30T05:43:26;3;1;
71858;PMS5003;59713;50.866;4.324;2023-03-30T05:44:26;3;1;
71858;PMS5003;59713;50.866;4.324;2023-03-30T05:45:28;6;2;
71858;PMS5003;59713;50.866;4.324;2023-03-30T05:46:26;6;2;
71858;PMS5003;59713;50.866;4.324;2023-03-30T05:47:26;6;2;
71858;PMS5003;59713;50.866;4.324;2023-03-30T05:48:26;1;1;
71858;PMS5003;59713;50.866;4.324;2023-03-30T05:49:26;1;1;
71858;PMS5003;59713;50.866;4.324;2023-03-30T05:50:26;1;1;
71858;PMS5003;59713;50.866;4.324;2023-03-30T05:51:26;3;2;
71858;PMS5003;59713;50.866;4.324;2023-03-30T05:52:26;3;2;
71858;PMS5003;59713;50.866;4.324;2023-03-30T05:53:26;3;2;
71858;PMS5003;59713;50.866;4.324;2023-03-30T05:54:31;2;2;
71858;PMS5003;59713;50.866;4.324;2023-03-30T05:55:26;2;2;
71858;PMS5003;59713;50.866;4.324;2023-03-30T05:56:27;2;2;
71858;PMS5003;59713;50.866;4.324;2023-03-30T05:57:26;4;2;
71858;PMS5003;59713;50.866;4.324;2023-03-30T05:57:26;4;2;
71858;PMS5003;59713;50.866;4.324;2023-03-30T05:58:26;4;2;
71858;PMS5003;59713;50.866;4.324;2023-03-30T05:59:26;4;2;
71858;PMS5003;59713;50.866;4.324;2023-03-30T06:00:26;3;3;
71858;PMS5003;59713;50.866;4.324;2023-03-30T06:01:26;3;3;
71858;PMS5003;59713;50.866;4.324;2023-03-30T06:02:26;3;3;
71858;PMS5003;59713;50.866;4.324;2023-03-30T06:03:26;4;4;
71858;PMS5003;59713;50.866;4.324;2023-03-30T06:04:27;4;4;
71858;PMS5003;59713;50.866;4.324;2023-03-30T06:05:28;4;4;
71858;PMS5003;59713;50.866;4.324;2023-03-30T06:06:27;2;2;
71858;PMS5003;59713;50.866;4.324;2023-03-30T06:07:26;2;2;
71858;PMS5003;59713;50.866;4.324;2023-03-30T06:07:26;2;2;
71858;PMS5003;59713;50.866;4.324;2023-03-30T06:08:26;2;2;
71858;PMS5003;59713;50.866;4.324;2023-03-30T06:09:26;3;3;
71858;PMS5003;59713;50.866;4.324;2023-03-30T06:10:26;3;3;
71858;PMS5003;59713;50.866;4.324;2023-03-30T06:11:26;3;3;
71858;PMS5003;59713;50.866;4.324;2023-03-30T06:12:26;4;3;
71858;PMS5003;59713;50.866;4.324;2023-03-30T06:13:26;4;3;
71858;PMS5003;59713;50.866;4.324;2023-03-30T06:14:26;4;3;
71858;PMS5003;59713;50.866;4.324;2023-03-30T06:15:26;4;2;